createdAt,value
2017-05-06T00:00:08.729Z,16.77
2017-05-06T00:00:37.137Z,16.83
2017-05-06T00:01:05.529Z,16.83
2017-05-06T00:01:33.901Z,16.83
2017-05-06T00:02:02.260Z,16.8
2017-05-06T00:02:30.572Z,16.72
2017-05-06T00:02:58.955Z,16.77
2017-05-06T00:03:27.369Z,16.8
2017-05-06T00:03:55.683Z,16.84
2017-05-06T00:04:24.025Z,16.74
2017-05-06T00:05:35.397Z,16.73
2017-05-06T00:06:03.819Z,16.74
2017-05-06T00:06:32.139Z,16.77
2017-05-06T00:07:00.427Z,16.74
2017-05-06T00:07:28.706Z,16.74
2017-05-06T00:07:57.068Z,16.73
2017-05-06T00:08:25.478Z,16.84
2017-05-06T00:08:53.856Z,16.84
2017-05-06T00:09:22.176Z,16.84
2017-05-06T00:09:50.405Z,16.88
2017-05-06T00:10:18.744Z,16.76
2017-05-06T00:11:30.108Z,16.87
2017-05-06T00:11:58.532Z,16.82
2017-05-06T00:12:26.838Z,16.84
2017-05-06T00:12:55.229Z,16.69
2017-05-06T00:13:23.506Z,16.61
2017-05-06T00:13:51.869Z,16.64
2017-05-06T00:14:20.186Z,16.58
2017-05-06T00:14:48.568Z,16.57
2017-05-06T00:16:00.062Z,16.55
2017-05-06T00:16:47.600Z,16.55
2017-05-06T00:17:15.823Z,16.55
2017-05-06T00:17:44.103Z,16.54
2017-05-06T00:18:12.468Z,16.64
2017-05-06T00:18:40.830Z,16.65
2017-05-06T00:19:09.245Z,16.59
2017-05-06T00:19:37.540Z,16.59
2017-05-06T00:20:05.767Z,16.57
2017-05-06T00:20:34.180Z,16.57
2017-05-06T00:21:02.521Z,16.51
2017-05-06T00:22:13.888Z,16.51
2017-05-06T00:22:42.218Z,16.55
2017-05-06T00:23:10.530Z,16.55
2017-05-06T00:23:38.923Z,16.54
2017-05-06T00:24:07.202Z,16.57
2017-05-06T00:24:35.566Z,16.52
2017-05-06T00:25:03.976Z,16.55
2017-05-06T00:25:32.175Z,16.64
2017-05-06T00:26:00.615Z,16.54
2017-05-06T00:26:29.007Z,16.59
2017-05-06T00:26:57.342Z,16.54
2017-05-06T00:28:08.710Z,16.59
2017-05-06T00:28:37.036Z,16.62
2017-05-06T00:29:05.338Z,16.55
2017-05-06T00:29:33.636Z,16.52
2017-05-06T00:30:01.914Z,16.62
2017-05-06T00:30:30.183Z,16.61
2017-05-06T00:30:58.499Z,16.57
2017-05-06T00:31:26.793Z,16.43
2017-05-06T00:31:55.210Z,16.55
2017-05-06T00:32:23.558Z,16.47
2017-05-06T00:32:51.904Z,16.46
2017-05-06T00:34:03.280Z,16.44
2017-05-06T00:34:31.607Z,16.47
2017-05-06T00:34:59.914Z,16.43
2017-05-06T00:35:28.137Z,16.44
2017-05-06T00:35:56.504Z,16.43
2017-05-06T00:36:24.866Z,16.42
2017-05-06T00:36:53.282Z,16.43
2017-05-06T00:37:21.668Z,16.44
2017-05-06T00:37:49.988Z,16.42
2017-05-06T00:38:18.403Z,16.34
2017-05-06T00:38:46.733Z,16.43
2017-05-06T00:39:58.010Z,16.42
2017-05-06T00:40:26.431Z,16.44
2017-05-06T00:40:54.740Z,16.44
2017-05-06T00:41:23.037Z,16.42
2017-05-06T00:41:51.313Z,16.49
2017-05-06T00:42:19.675Z,16.43
2017-05-06T00:42:47.993Z,16.44
2017-05-06T00:43:16.377Z,16.49
2017-05-06T00:43:44.792Z,16.44
2017-05-06T00:44:13.111Z,16.4
2017-05-06T00:44:41.453Z,16.44
2017-05-06T00:45:52.819Z,16.44
2017-05-06T00:46:21.146Z,16.39
2017-05-06T00:46:49.555Z,16.42
2017-05-06T00:47:17.945Z,16.49
2017-05-06T00:47:46.232Z,16.46
2017-05-06T00:48:14.594Z,16.49
2017-05-06T00:48:42.909Z,16.43
2017-05-06T00:49:11.294Z,16.55
2017-05-06T00:49:39.706Z,16.46
2017-05-06T00:50:08.023Z,16.49
2017-05-06T00:50:36.365Z,16.47
2017-05-06T00:51:47.741Z,16.42
2017-05-06T00:52:16.065Z,16.43
2017-05-06T00:52:44.372Z,16.47
2017-05-06T00:53:12.667Z,16.49
2017-05-06T00:53:40.950Z,16.51
2017-05-06T00:54:09.133Z,16.57
2017-05-06T00:54:37.545Z,16.44
2017-05-06T00:55:05.935Z,16.52
2017-05-06T00:55:34.353Z,16.54
2017-05-06T00:56:02.766Z,16.59
2017-05-06T00:56:31.105Z,16.57
2017-05-06T00:57:42.569Z,16.52
2017-05-06T00:58:10.898Z,16.61
2017-05-06T00:58:39.298Z,16.61
2017-05-06T00:59:07.598Z,16.46
2017-05-06T00:59:35.784Z,16.55
2017-05-06T01:00:04.151Z,16.42
2017-05-06T01:00:32.470Z,16.44
2017-05-06T01:01:00.855Z,16.44
2017-05-06T01:01:29.179Z,16.44
2017-05-06T01:01:57.594Z,16.49
2017-05-06T01:02:25.936Z,16.54
2017-05-06T01:03:37.398Z,16.54
2017-05-06T01:04:05.631Z,16.57
2017-05-06T01:04:33.944Z,16.49
2017-05-06T01:05:02.328Z,16.54
2017-05-06T01:05:30.517Z,16.39
2017-05-06T01:05:58.782Z,16.46
2017-05-06T01:06:27.197Z,16.37
2017-05-06T01:06:55.585Z,16.42
2017-05-06T01:07:23.999Z,16.34
2017-05-06T01:07:52.255Z,16.34
2017-05-06T01:08:20.564Z,16.33
2017-05-06T01:09:32.024Z,16.32
2017-05-06T01:10:00.352Z,16.33
2017-05-06T01:10:28.754Z,16.37
2017-05-06T01:10:57.075Z,16.39
2017-05-06T01:11:25.253Z,16.33
2017-05-06T01:11:53.524Z,16.37
2017-05-06T01:12:21.937Z,16.29
2017-05-06T01:12:50.316Z,16.33
2017-05-06T01:13:18.641Z,16.33
2017-05-06T01:13:47.054Z,16.25
2017-05-06T01:14:15.301Z,16.32
2017-05-06T01:15:26.691Z,16.29
2017-05-06T01:15:54.935Z,16.33
2017-05-06T01:16:23.340Z,16.25
2017-05-06T01:16:51.639Z,16.26
2017-05-06T01:17:20.010Z,16.26
2017-05-06T01:17:48.373Z,16.22
2017-05-06T01:18:16.685Z,16.32
2017-05-06T01:18:45.083Z,16.33
2017-05-06T01:19:13.405Z,16.29
2017-05-06T01:19:41.629Z,16.26
2017-05-06T01:20:09.966Z,16.25
2017-05-06T01:21:21.423Z,16.16
2017-05-06T01:21:49.753Z,16.16
2017-05-06T01:22:18.159Z,16.25
2017-05-06T01:22:46.363Z,16.21
2017-05-06T01:23:14.730Z,16.26
2017-05-06T01:23:43.094Z,16.18
2017-05-06T01:24:11.504Z,16.22
2017-05-06T01:24:39.798Z,16.26
2017-05-06T01:25:08.214Z,16.34
2017-05-06T01:25:36.341Z,16.26
2017-05-06T01:26:04.582Z,16.36
2017-05-06T01:27:16.046Z,16.37
2017-05-06T01:27:44.466Z,16.29
2017-05-06T01:28:12.689Z,16.37
2017-05-06T01:28:40.988Z,16.34
2017-05-06T01:29:09.173Z,16.33
2017-05-06T01:29:37.440Z,16.43
2017-05-06T01:30:05.753Z,16.33
2017-05-06T01:30:34.128Z,16.43
2017-05-06T01:31:02.545Z,16.33
2017-05-06T01:31:30.866Z,16.29
2017-05-06T01:31:59.208Z,16.44
2017-05-06T01:33:10.579Z,16.36
2017-05-06T01:33:39.004Z,16.36
2017-05-06T01:34:07.316Z,16.43
2017-05-06T01:34:35.711Z,16.39
2017-05-06T01:35:03.896Z,16.39
2017-05-06T01:35:32.163Z,16.39
2017-05-06T01:36:00.562Z,16.29
2017-05-06T01:36:28.945Z,16.34
2017-05-06T01:36:57.168Z,16.29
2017-05-06T01:37:25.567Z,16.34
2017-05-06T01:37:53.901Z,16.37
2017-05-06T01:39:05.268Z,16.33
2017-05-06T01:39:33.600Z,16.36
2017-05-06T01:40:01.923Z,16.39
2017-05-06T01:40:30.312Z,16.36
2017-05-06T01:40:58.588Z,16.32
2017-05-06T01:41:26.955Z,16.29
2017-05-06T01:41:55.365Z,16.26
2017-05-06T01:42:24.098Z,16.28
2017-05-06T01:42:52.326Z,16.29
2017-05-06T01:43:20.641Z,16.26
2017-05-06T01:43:48.796Z,16.33
2017-05-06T01:45:00.160Z,16.22
2017-05-06T01:45:28.584Z,16.28
2017-05-06T01:45:56.899Z,16.28
2017-05-06T01:46:25.102Z,16.26
2017-05-06T01:46:53.378Z,16.25
2017-05-06T01:47:21.740Z,16.24
2017-05-06T01:47:50.154Z,16.17
2017-05-06T01:48:18.532Z,16.1
2017-05-06T01:48:46.856Z,16.14
2017-05-06T01:49:15.291Z,16.16
2017-05-06T01:49:43.517Z,16.22
2017-05-06T01:50:54.885Z,16.18
2017-05-06T01:51:23.305Z,16.17
2017-05-06T01:51:51.711Z,16.17
2017-05-06T01:52:20.009Z,16.24
2017-05-06T01:52:48.383Z,16.18
2017-05-06T01:53:16.656Z,16.21
2017-05-06T01:53:45.065Z,16.29
2017-05-06T01:54:13.454Z,16.26
2017-05-06T01:54:41.777Z,16.22
2017-05-06T01:55:10.002Z,16.18
2017-05-06T01:55:38.339Z,16.24
2017-05-06T01:56:49.708Z,16.32
2017-05-06T01:57:18.037Z,16.33
2017-05-06T01:57:46.347Z,16.33
2017-05-06T01:58:14.555Z,16.28
2017-05-06T01:58:42.922Z,16.29
2017-05-06T01:59:11.192Z,16.25
2017-05-06T01:59:39.507Z,16.22
2017-05-06T02:00:07.895Z,16.24
2017-05-06T02:00:36.216Z,16.22
2017-05-06T02:01:04.628Z,16.21
2017-05-06T02:01:32.877Z,16.18
2017-05-06T02:02:44.337Z,16.24
2017-05-06T02:03:12.751Z,16.1
2017-05-06T02:03:40.962Z,16.1
2017-05-06T02:04:09.261Z,16.17
2017-05-06T02:04:37.535Z,16.17
2017-05-06T02:05:05.808Z,16.22
2017-05-06T02:05:34.222Z,16.18
2017-05-06T02:06:02.608Z,16.17
2017-05-06T02:06:30.927Z,16.25
2017-05-06T02:06:59.340Z,16.29
2017-05-06T02:07:27.689Z,16.26
2017-05-06T02:08:39.153Z,16.29
2017-05-06T02:09:07.469Z,16.26
2017-05-06T02:09:35.866Z,16.24
2017-05-06T02:10:04.068Z,16.32
2017-05-06T02:10:32.346Z,16.36
2017-05-06T02:11:00.709Z,16.26
2017-05-06T02:11:29.119Z,16.37
2017-05-06T02:11:57.506Z,16.36
2017-05-06T02:12:25.862Z,16.34
2017-05-06T02:12:54.353Z,16.43
2017-05-06T02:13:22.692Z,16.37
2017-05-06T02:14:34.151Z,16.37
2017-05-06T02:15:02.573Z,16.26
2017-05-06T02:15:30.890Z,16.16
2017-05-06T02:15:59.279Z,16.22
2017-05-06T02:16:27.562Z,16.03
2017-05-06T02:16:55.930Z,16.18
2017-05-06T02:17:24.337Z,16.16
2017-05-06T02:17:52.623Z,16.17
2017-05-06T02:18:21.036Z,16.13
2017-05-06T02:18:49.263Z,16.14
2017-05-06T02:19:17.607Z,16.13
2017-05-06T02:20:28.975Z,16.18
2017-05-06T02:20:57.303Z,16.13
2017-05-06T02:21:25.523Z,16.17
2017-05-06T02:21:53.728Z,16.08
2017-05-06T02:22:22.003Z,16.17
2017-05-06T02:22:50.367Z,16.14
2017-05-06T02:23:18.774Z,16.13
2017-05-06T02:23:47.070Z,16.17
2017-05-06T02:24:15.485Z,16.09
2017-05-06T02:24:43.711Z,16.09
2017-05-06T02:25:12.052Z,16.13
2017-05-06T02:26:23.511Z,16
2017-05-06T02:26:51.840Z,16.06
2017-05-06T02:27:20.146Z,16.13
2017-05-06T02:27:48.442Z,16.06
2017-05-06T02:28:16.718Z,16.03
2017-05-06T02:28:44.985Z,16.03
2017-05-06T02:29:13.396Z,16.09
2017-05-06T02:29:41.787Z,16.05
2017-05-06T02:30:10.201Z,16.16
2017-05-06T02:30:38.425Z,16.05
2017-05-06T02:31:06.765Z,16.17
2017-05-06T02:32:18.226Z,16.13
2017-05-06T02:32:46.647Z,16.14
2017-05-06T02:33:14.964Z,16.13
2017-05-06T02:33:43.171Z,16.05
2017-05-06T02:34:11.451Z,16.09
2017-05-06T02:34:39.816Z,16.13
2017-05-06T02:35:08.226Z,16.08
2017-05-06T02:35:36.613Z,16.17
2017-05-06T02:36:05.025Z,16.22
2017-05-06T02:36:33.256Z,16.16
2017-05-06T02:37:01.603Z,16.17
2017-05-06T02:38:12.973Z,16.17
2017-05-06T02:38:41.303Z,16.1
2017-05-06T02:39:09.714Z,16.09
2017-05-06T02:39:38.105Z,16.13
2017-05-06T02:40:06.382Z,16.08
2017-05-06T02:40:34.751Z,16.14
2017-05-06T02:41:03.160Z,16.17
2017-05-06T02:41:31.453Z,16.14
2017-05-06T02:41:59.773Z,16.14
2017-05-06T02:42:28.000Z,16.18
2017-05-06T02:42:56.342Z,16.17
2017-05-06T02:44:07.711Z,16.28
2017-05-06T02:44:36.132Z,16.24
2017-05-06T02:45:04.446Z,16.25
2017-05-06T02:45:32.837Z,16.25
2017-05-06T02:46:01.210Z,16.32
2017-05-06T02:46:29.483Z,16.29
2017-05-06T02:46:57.895Z,16.33
2017-05-06T02:47:26.281Z,16.37
2017-05-06T02:47:54.698Z,16.33
2017-05-06T02:48:23.020Z,16.28
2017-05-06T02:48:51.362Z,16.32
2017-05-06T02:50:02.824Z,16.32
2017-05-06T02:50:31.151Z,16.22
2017-05-06T02:50:59.456Z,16.34
2017-05-06T02:51:27.753Z,16.34
2017-05-06T02:51:56.122Z,16.33
2017-05-06T02:52:24.382Z,16.22
2017-05-06T02:52:52.794Z,16.34
2017-05-06T02:53:21.176Z,16.29
2017-05-06T02:53:49.593Z,16.32
2017-05-06T02:54:17.909Z,16.33
2017-05-06T02:54:46.252Z,16.39
2017-05-06T02:55:57.712Z,16.34
2017-05-06T02:56:26.137Z,16.32
2017-05-06T02:56:54.456Z,16.37
2017-05-06T02:57:22.755Z,16.32
2017-05-06T02:57:51.131Z,16.36
2017-05-06T02:58:19.497Z,16.34
2017-05-06T02:58:47.908Z,16.36
2017-05-06T02:59:16.111Z,16.39
2017-05-06T02:59:44.332Z,16.36
2017-05-06T03:00:12.561Z,16.29
2017-05-06T03:00:40.898Z,16.34
2017-05-06T03:01:52.362Z,16.32
2017-05-06T03:02:20.782Z,16.37
2017-05-06T03:02:49.001Z,16.36
2017-05-06T03:03:17.296Z,16.36
2017-05-06T03:03:45.481Z,16.26
2017-05-06T03:04:13.846Z,16.26
2017-05-06T03:04:42.258Z,16.33
2017-05-06T03:05:10.645Z,16.29
2017-05-06T03:05:39.062Z,16.33
2017-05-06T03:06:07.382Z,16.29
2017-05-06T03:06:35.719Z,16.36
2017-05-06T03:07:47.174Z,16.36
2017-05-06T03:08:15.508Z,16.24
2017-05-06T03:08:43.913Z,16.33
2017-05-06T03:09:12.215Z,16.25
2017-05-06T03:09:40.585Z,16.25
2017-05-06T03:10:08.952Z,16.25
2017-05-06T03:10:37.360Z,16.18
2017-05-06T03:11:05.747Z,16.25
2017-05-06T03:11:34.063Z,16.22
2017-05-06T03:12:02.474Z,16.22
2017-05-06T03:12:30.626Z,16.21
2017-05-06T03:13:41.998Z,16.22
2017-05-06T03:14:10.327Z,16.28
2017-05-06T03:14:38.635Z,16.24
2017-05-06T03:15:06.932Z,16.24
2017-05-06T03:15:35.301Z,16.28
2017-05-06T03:16:03.660Z,16.18
2017-05-06T03:16:32.069Z,16.22
2017-05-06T03:17:00.452Z,16.21
2017-05-06T03:17:28.871Z,16.18
2017-05-06T03:17:57.282Z,16.25
2017-05-06T03:18:25.623Z,16.21
2017-05-06T03:19:37.081Z,16.25
2017-05-06T03:20:05.410Z,16.22
2017-05-06T03:20:33.725Z,16.24
2017-05-06T03:21:01.931Z,16.26
2017-05-06T03:21:30.298Z,16.25
2017-05-06T03:21:58.571Z,16.22
2017-05-06T03:22:26.979Z,16.29
2017-05-06T03:22:55.365Z,16.18
2017-05-06T03:23:23.590Z,16.24
2017-05-06T03:23:51.819Z,16.22
2017-05-06T03:24:20.162Z,16.17
2017-05-06T03:25:31.529Z,16.08
2017-05-06T03:25:59.949Z,16.13
2017-05-06T03:26:28.262Z,16.08
2017-05-06T03:26:56.462Z,16.08
2017-05-06T03:27:24.740Z,16.13
2017-05-06T03:27:53.008Z,16.1
2017-05-06T03:28:21.418Z,16.22
2017-05-06T03:28:49.715Z,16.17
2017-05-06T03:29:18.132Z,16.1
2017-05-06T03:29:46.449Z,16.17
2017-05-06T03:30:14.786Z,16.16
2017-05-06T03:31:26.066Z,16.13
2017-05-06T03:31:54.488Z,16.13
2017-05-06T03:32:22.800Z,16.13
2017-05-06T03:32:51.102Z,16.06
2017-05-06T03:33:19.465Z,16.02
2017-05-06T03:33:47.828Z,16.05
2017-05-06T03:34:16.146Z,16.05
2017-05-06T03:34:44.432Z,16.05
2017-05-06T03:35:12.761Z,16.1
2017-05-06T03:35:41.080Z,16.1
2017-05-06T03:36:09.418Z,16.03
2017-05-06T03:37:20.873Z,16.03
2017-05-06T03:37:49.293Z,16.08
2017-05-06T03:38:17.605Z,16.05
2017-05-06T03:38:45.999Z,16
2017-05-06T03:39:14.812Z,15.99
2017-05-06T03:39:43.179Z,16.03
2017-05-06T03:40:11.591Z,16.02
2017-05-06T03:40:39.972Z,16.03
2017-05-06T03:41:08.390Z,15.98
2017-05-06T03:41:36.709Z,15.99
2017-05-06T03:42:05.051Z,15.91
2017-05-06T03:43:16.417Z,15.9
2017-05-06T03:43:44.745Z,15.98
2017-05-06T03:44:13.142Z,16.02
2017-05-06T03:44:41.443Z,15.98
2017-05-06T03:45:09.807Z,15.98
2017-05-06T03:45:38.168Z,16.05
2017-05-06T03:46:06.584Z,15.99
2017-05-06T03:46:34.873Z,16.02
2017-05-06T03:47:03.290Z,15.99
2017-05-06T03:47:31.702Z,16.08
2017-05-06T03:48:00.047Z,15.95
2017-05-06T03:49:11.414Z,15.99
2017-05-06T03:49:39.739Z,15.98
2017-05-06T03:50:08.046Z,15.96
2017-05-06T03:50:36.444Z,15.96
2017-05-06T03:51:04.714Z,15.98
2017-05-06T03:51:33.078Z,16
2017-05-06T03:52:01.299Z,15.99
2017-05-06T03:52:29.596Z,15.99
2017-05-06T03:52:58.014Z,16
2017-05-06T03:53:26.333Z,16
2017-05-06T03:53:54.684Z,16.06
2017-05-06T03:55:06.139Z,16
2017-05-06T03:55:34.471Z,15.88
2017-05-06T03:56:02.776Z,15.99
2017-05-06T03:56:31.077Z,15.93
2017-05-06T03:56:59.446Z,16.02
2017-05-06T03:57:27.626Z,16.08
2017-05-06T03:57:56.034Z,15.99
2017-05-06T03:58:24.420Z,15.99
2017-05-06T03:58:52.837Z,15.99
2017-05-06T03:59:21.160Z,15.99
2017-05-06T03:59:49.502Z,15.9
2017-05-06T04:01:00.959Z,15.98
2017-05-06T04:01:29.294Z,15.96
2017-05-06T04:01:57.603Z,15.98
2017-05-06T04:02:26.001Z,16
2017-05-06T04:02:54.274Z,16
2017-05-06T04:03:22.639Z,15.98
2017-05-06T04:03:51.050Z,16
2017-05-06T04:04:19.432Z,15.98
2017-05-06T04:04:47.845Z,15.98
2017-05-06T04:05:16.161Z,16.02
2017-05-06T04:05:44.502Z,16.08
2017-05-06T04:06:55.961Z,16.02
2017-05-06T04:07:24.289Z,16.09
2017-05-06T04:07:52.596Z,16.13
2017-05-06T04:08:20.996Z,16.09
2017-05-06T04:08:49.368Z,16.13
2017-05-06T04:09:17.634Z,16.14
2017-05-06T04:09:45.952Z,16.17
2017-05-06T04:10:14.247Z,16.16
2017-05-06T04:10:42.662Z,16.13
2017-05-06T04:11:11.078Z,16.06
2017-05-06T04:11:39.421Z,16.13
2017-05-06T04:12:50.878Z,16.06
2017-05-06T04:13:19.301Z,16.08
2017-05-06T04:13:47.623Z,16.03
2017-05-06T04:14:15.823Z,16.03
2017-05-06T04:14:44.098Z,16.1
2017-05-06T04:15:12.369Z,16.09
2017-05-06T04:15:40.784Z,16.03
2017-05-06T04:16:09.075Z,16.03
2017-05-06T04:16:37.395Z,16.02
2017-05-06T04:17:05.810Z,16.06
2017-05-06T04:17:34.155Z,16.06
2017-05-06T04:18:45.518Z,16.09
2017-05-06T04:19:13.845Z,16.06
2017-05-06T04:19:42.244Z,16.1
2017-05-06T04:20:10.543Z,16.1
2017-05-06T04:20:38.725Z,16.08
2017-05-06T04:21:06.902Z,16.09
2017-05-06T04:21:35.307Z,16.13
2017-05-06T04:22:03.686Z,16.17
2017-05-06T04:22:32.011Z,16.13
2017-05-06T04:23:00.333Z,16.16
2017-05-06T04:23:28.579Z,16.09
2017-05-06T04:24:39.949Z,16.13
2017-05-06T04:25:08.283Z,16.13
2017-05-06T04:25:36.494Z,16.13
2017-05-06T04:26:04.891Z,16.09
2017-05-06T04:26:33.261Z,16.1
2017-05-06T04:27:01.435Z,16.06
2017-05-06T04:27:29.841Z,15.99
2017-05-06T04:27:58.232Z,16.03
2017-05-06T04:28:26.650Z,16.03
2017-05-06T04:28:55.064Z,15.99
2017-05-06T04:29:23.310Z,16.08
2017-05-06T04:30:34.588Z,16
2017-05-06T04:31:03.011Z,15.98
2017-05-06T04:31:31.228Z,15.95
2017-05-06T04:31:59.533Z,15.96
2017-05-06T04:32:27.802Z,15.99
2017-05-06T04:32:56.071Z,16.03
2017-05-06T04:33:24.386Z,16.09
2017-05-06T04:33:52.773Z,16.05
2017-05-06T04:34:21.182Z,16.08
2017-05-06T04:34:49.594Z,16.09
2017-05-06T04:35:17.932Z,16.09
2017-05-06T04:36:29.295Z,16.1
2017-05-06T04:36:57.624Z,16.14
2017-05-06T04:37:25.836Z,16.02
2017-05-06T04:37:54.133Z,16
2017-05-06T04:38:22.317Z,16.03
2017-05-06T04:38:50.683Z,15.98
2017-05-06T04:39:19.097Z,16.03
2017-05-06T04:39:47.481Z,16
2017-05-06T04:40:15.895Z,16.03
2017-05-06T04:40:44.216Z,16.05
2017-05-06T04:41:12.462Z,16.03
2017-05-06T04:42:23.922Z,16.08
2017-05-06T04:42:52.247Z,15.99
2017-05-06T04:43:20.556Z,16
2017-05-06T04:43:48.948Z,16.06
2017-05-06T04:44:17.137Z,16.02
2017-05-06T04:44:45.501Z,16
2017-05-06T04:45:13.910Z,15.99
2017-05-06T04:45:42.293Z,16.02
2017-05-06T04:46:10.704Z,16.09
2017-05-06T04:46:39.025Z,16.09
2017-05-06T04:47:07.365Z,16.09
2017-05-06T04:48:18.829Z,16.16
2017-05-06T04:48:47.250Z,16.08
2017-05-06T04:49:15.655Z,16.13
2017-05-06T04:49:44.046Z,16.13
2017-05-06T04:50:12.419Z,16.1
2017-05-06T04:50:40.686Z,16.08
2017-05-06T04:51:09.093Z,16.17
2017-05-06T04:51:37.477Z,16.21
2017-05-06T04:52:05.886Z,16.13
2017-05-06T04:52:34.204Z,16.28
2017-05-06T04:53:02.450Z,16.14
2017-05-06T04:54:13.817Z,16.06
2017-05-06T04:54:42.238Z,16.13
2017-05-06T04:55:10.551Z,16.18
2017-05-06T04:55:38.945Z,16.06
2017-05-06T04:56:07.132Z,16.22
2017-05-06T04:56:35.398Z,16.14
2017-05-06T04:57:03.809Z,16.14
2017-05-06T04:57:32.190Z,16.16
2017-05-06T04:58:00.607Z,16.1
2017-05-06T04:58:28.927Z,16.17
2017-05-06T04:58:57.270Z,16.17
2017-05-06T05:00:08.545Z,16.14
2017-05-06T05:00:36.875Z,16.16
2017-05-06T05:01:05.189Z,16.21
2017-05-06T05:01:33.298Z,16.09
2017-05-06T05:02:01.673Z,16.17
2017-05-06T05:02:29.939Z,16.13
2017-05-06T05:02:58.351Z,16.17
2017-05-06T05:03:26.641Z,16.17
2017-05-06T05:03:54.961Z,16.14
2017-05-06T05:04:23.188Z,16.17
2017-05-06T05:04:51.436Z,16.1
2017-05-06T05:06:02.712Z,16.06
2017-05-06T05:06:31.137Z,16.14
2017-05-06T05:06:59.544Z,16.09
2017-05-06T05:07:27.928Z,16.08
2017-05-06T05:07:56.210Z,16.18
2017-05-06T05:08:24.574Z,16.05
2017-05-06T05:08:52.984Z,16.06
2017-05-06T05:09:21.371Z,16.14
2017-05-06T05:09:49.784Z,16.13
2017-05-06T05:10:18.199Z,16.21
2017-05-06T05:10:46.540Z,16.17
2017-05-06T05:11:57.915Z,16.21
2017-05-06T05:12:26.334Z,16.14
2017-05-06T05:12:54.646Z,16.17
2017-05-06T05:13:22.941Z,16.17
2017-05-06T05:13:51.125Z,16.18
2017-05-06T05:14:19.485Z,16.16
2017-05-06T05:14:47.898Z,16.21
2017-05-06T05:15:16.281Z,16.21
2017-05-06T05:15:44.698Z,16.25
2017-05-06T05:16:13.013Z,16.32
2017-05-06T05:16:41.351Z,16.25
2017-05-06T05:17:52.719Z,16.1
2017-05-06T05:18:21.047Z,16.09
2017-05-06T05:18:49.358Z,16.14
2017-05-06T05:19:17.757Z,16.17
2017-05-06T05:19:46.133Z,16.16
2017-05-06T05:20:14.398Z,16.08
2017-05-06T05:20:42.805Z,16.16
2017-05-06T05:21:11.191Z,16.22
2017-05-06T05:21:39.512Z,16.16
2017-05-06T05:22:07.642Z,16.16
2017-05-06T05:22:35.895Z,16.09
2017-05-06T05:23:47.347Z,16.1
2017-05-06T05:24:15.681Z,16.33
2017-05-06T05:24:43.999Z,16.09
2017-05-06T05:25:12.300Z,16.13
2017-05-06T05:25:40.486Z,16.13
2017-05-06T05:26:08.852Z,16.1
2017-05-06T05:26:37.174Z,16.17
2017-05-06T05:27:05.466Z,16.14
2017-05-06T05:27:33.691Z,16.14
2017-05-06T05:28:02.105Z,16.13
2017-05-06T05:28:30.446Z,16.26
2017-05-06T05:29:41.816Z,16.17
2017-05-06T05:30:10.144Z,16.18
2017-05-06T05:30:38.550Z,16.18
2017-05-06T05:31:06.949Z,16.18
2017-05-06T05:31:35.314Z,16.14
2017-05-06T05:32:03.679Z,16.1
2017-05-06T05:32:32.089Z,16.08
2017-05-06T05:33:00.478Z,16.14
2017-05-06T05:33:28.893Z,16.14
2017-05-06T05:33:57.118Z,16.24
2017-05-06T05:34:25.455Z,16.17
2017-05-06T05:35:36.911Z,16.17
2017-05-06T05:36:05.149Z,16.16
2017-05-06T05:36:33.364Z,16.25
2017-05-06T05:37:01.657Z,16.17
2017-05-06T05:37:30.034Z,16.17
2017-05-06T05:37:58.398Z,16.16
2017-05-06T05:38:26.809Z,16.18
2017-05-06T05:38:55.191Z,16.21
2017-05-06T05:39:23.605Z,16.18
2017-05-06T05:39:52.020Z,16.17
2017-05-06T05:40:20.364Z,16.21
2017-05-06T05:41:31.733Z,16.17
2017-05-06T05:42:00.063Z,16.14
2017-05-06T05:42:28.376Z,16.21
2017-05-06T05:42:56.671Z,16.13
2017-05-06T05:43:25.500Z,16.06
2017-05-06T05:43:53.769Z,16.17
2017-05-06T05:44:22.183Z,16.08
2017-05-06T05:44:50.571Z,16.03
2017-05-06T05:45:18.986Z,16.14
2017-05-06T05:45:47.397Z,16.13
2017-05-06T05:46:15.738Z,16.17
2017-05-06T05:47:27.201Z,16.21
2017-05-06T05:47:55.625Z,16.13
2017-05-06T05:48:24.028Z,16.13
2017-05-06T05:48:52.350Z,16.24
2017-05-06T05:49:20.601Z,16.1
2017-05-06T05:49:48.964Z,16.14
2017-05-06T05:50:17.373Z,16.13
2017-05-06T05:50:45.756Z,16.14
2017-05-06T05:51:14.169Z,16.14
2017-05-06T05:51:42.491Z,16.13
2017-05-06T05:52:10.732Z,16.1
2017-05-06T05:53:22.195Z,16.08
2017-05-06T05:53:50.616Z,16.17
2017-05-06T05:54:18.830Z,16.16
2017-05-06T05:54:47.034Z,16.14
2017-05-06T05:55:15.220Z,16.1
2017-05-06T05:55:43.583Z,16.16
2017-05-06T05:56:11.992Z,16.18
2017-05-06T05:56:40.380Z,16.08
2017-05-06T05:57:08.798Z,16.1
2017-05-06T05:57:37.213Z,16.21
2017-05-06T05:58:05.553Z,16.1
2017-05-06T05:59:17.009Z,15.99
2017-05-06T05:59:45.430Z,15.98
2017-05-06T06:00:13.642Z,15.99
2017-05-06T06:00:41.946Z,15.9
2017-05-06T06:01:10.221Z,15.9
2017-05-06T06:01:38.587Z,15.9
2017-05-06T06:02:06.995Z,15.88
2017-05-06T06:02:35.378Z,15.96
2017-05-06T06:03:03.793Z,15.81
2017-05-06T06:03:32.109Z,15.95
2017-05-06T06:04:00.352Z,15.91
2017-05-06T06:05:11.809Z,15.83
2017-05-06T06:05:40.051Z,15.87
2017-05-06T06:06:08.452Z,15.87
2017-05-06T06:06:36.839Z,15.81
2017-05-06T06:07:05.203Z,15.88
2017-05-06T06:07:33.474Z,15.83
2017-05-06T06:08:01.891Z,15.8
2017-05-06T06:08:30.266Z,15.87
2017-05-06T06:08:58.677Z,15.85
2017-05-06T06:09:26.996Z,15.78
2017-05-06T06:09:55.335Z,15.83
2017-05-06T06:11:06.793Z,15.87
2017-05-06T06:11:35.213Z,15.84
2017-05-06T06:12:03.617Z,15.85
2017-05-06T06:12:32.010Z,15.85
2017-05-06T06:13:00.383Z,15.81
2017-05-06T06:13:28.653Z,15.77
2017-05-06T06:13:57.063Z,15.77
2017-05-06T06:14:25.452Z,15.8
2017-05-06T06:14:53.868Z,15.81
2017-05-06T06:15:22.277Z,15.85
2017-05-06T06:15:50.525Z,15.85
2017-05-06T06:17:01.892Z,15.85
2017-05-06T06:17:30.126Z,15.95
2017-05-06T06:17:58.529Z,15.87
2017-05-06T06:18:26.831Z,15.9
2017-05-06T06:18:55.193Z,16
2017-05-06T06:19:23.552Z,15.98
2017-05-06T06:19:51.871Z,16
2017-05-06T06:20:20.253Z,15.96
2017-05-06T06:20:48.670Z,16
2017-05-06T06:21:16.990Z,16
2017-05-06T06:21:45.325Z,16.05
2017-05-06T06:22:56.781Z,16.03
2017-05-06T06:23:25.201Z,15.93
2017-05-06T06:23:53.516Z,15.99
2017-05-06T06:24:21.811Z,16.09
2017-05-06T06:24:50.182Z,16
2017-05-06T06:25:18.450Z,15.99
2017-05-06T06:25:46.860Z,16.05
2017-05-06T06:26:15.238Z,16.03
2017-05-06T06:26:43.652Z,15.98
2017-05-06T06:27:11.882Z,15.98
2017-05-06T06:27:40.220Z,15.9
2017-05-06T06:28:51.677Z,15.95
2017-05-06T06:29:20.002Z,15.95
2017-05-06T06:29:48.310Z,15.91
2017-05-06T06:30:16.612Z,15.96
2017-05-06T06:30:44.885Z,15.91
2017-05-06T06:31:13.248Z,15.87
2017-05-06T06:31:41.657Z,15.93
2017-05-06T06:32:10.044Z,15.91
2017-05-06T06:32:38.272Z,15.88
2017-05-06T06:33:06.499Z,15.93
2017-05-06T06:33:34.833Z,15.93
2017-05-06T06:34:46.200Z,15.85
2017-05-06T06:35:14.525Z,15.81
2017-05-06T06:35:42.834Z,15.88
2017-05-06T06:36:10.952Z,15.8
2017-05-06T06:36:39.325Z,15.78
2017-05-06T06:37:07.688Z,15.8
2017-05-06T06:37:36.092Z,15.77
2017-05-06T06:38:04.479Z,15.73
2017-05-06T06:38:32.798Z,15.69
2017-05-06T06:39:01.119Z,15.8
2017-05-06T06:39:29.464Z,15.66
2017-05-06T06:40:40.830Z,15.73
2017-05-06T06:41:09.153Z,15.73
2017-05-06T06:41:37.276Z,15.7
2017-05-06T06:42:05.478Z,15.7
2017-05-06T06:42:33.849Z,15.66
2017-05-06T06:43:02.122Z,15.7
2017-05-06T06:43:30.531Z,15.59
2017-05-06T06:43:58.815Z,15.56
2017-05-06T06:44:27.232Z,15.54
2017-05-06T06:44:55.550Z,15.54
2017-05-06T06:45:23.890Z,15.59
2017-05-06T06:46:35.348Z,15.58
2017-05-06T06:47:03.772Z,15.54
2017-05-06T06:47:32.184Z,15.56
2017-05-06T06:48:00.379Z,15.56
2017-05-06T06:48:28.658Z,15.54
2017-05-06T06:48:57.024Z,15.45
2017-05-06T06:49:25.433Z,15.51
2017-05-06T06:49:53.721Z,15.5
2017-05-06T06:50:21.941Z,15.51
2017-05-06T06:50:50.258Z,15.47
2017-05-06T06:51:18.598Z,15.5
2017-05-06T06:52:29.970Z,15.59
2017-05-06T06:52:58.395Z,15.59
2017-05-06T06:53:26.706Z,15.63
2017-05-06T06:53:55.099Z,15.59
2017-05-06T06:54:23.379Z,15.56
2017-05-06T06:54:51.743Z,15.56
2017-05-06T06:55:20.152Z,15.62
2017-05-06T06:55:48.542Z,15.58
2017-05-06T06:56:16.775Z,15.65
2017-05-06T06:56:45.094Z,15.6
2017-05-06T06:57:13.432Z,15.58